Main page
METAR-TAF:

METAR-TAF

Airports :

Rijeka Airport

Rijeka, Croatia

latitude: 45-13N, longitude: 014-35E, elevation: 85 m

Current weather observation

The report was made 13 minutes ago, at 18:30 UTC
Wind 11 kt from the Northeast
Temperature 5°C
Humidity 70%
Pressure 1010 hPa
Visibility 10 km or more
Scattered clouds at a height of 3000 ft
Broken clouds at a height of 4000 ft
light rain

METAR: LDRI 191830Z 05011KT 9999 -RA SCT030 BKN040 05/00 Q1010

Time: 19:43 (18:43 UTC)

Forecast

The report was made 1 hour and 17 minutes ago, at 17:26 UTC
Forecast valid from 19 at 18 UTC to 20 at 18 UTC
Wind 8 kt from the East/Northeast
Visibility 10 km or more
Scattered clouds at a height of 1500 ft
Broken clouds at a height of 3000 ft
Temporary
from 19 at 22 UTC to 20 at 10 UTC
rain
Probability 40% :
Temporary
from 19 at 22 UTC to 20 at 06 UTC
Wind 15 kt from the East/Northeast with gusts up to 30 kt

TAF: LDRI 191726Z 1918/2018 06008KT 9999 SCT015 BKN030 TX07/2013Z TN04/2001Z TEMPO 1922/2010 RA PROB40 TEMPO 1922/2006 06015G30KT

Weather observations and forecasts of more than 4000 airports (METAR and TAF reports).

The available stations are represented by yellow and red dots on the map.

Hover mouse over dot to see the name of the station.

Then click to see weather observations and forecasts.

To change the map : click on the green buttons with a black cross to zoom in, on the green button with a dash to zoom out, or on the green arrows for adjacent maps.


METAR-TAF: